createdAt,value
2017-10-23T00:01:25.586Z,6.10
2017-10-23T00:03:54.160Z,6.10
2017-10-23T00:06:22.986Z,6.00
2017-10-23T00:08:52.752Z,6.00
2017-10-23T00:11:22.461Z,6.10
2017-10-23T00:13:51.579Z,6.00
2017-10-23T00:16:20.406Z,6.10
2017-10-23T00:18:49.170Z,6.10
2017-10-23T00:21:18.643Z,6.10
2017-10-23T00:23:48.062Z,6.10
2017-10-23T00:26:16.815Z,6.10
2017-10-23T00:28:46.474Z,6.10
2017-10-23T00:31:15.151Z,6.20
2017-10-23T00:33:43.766Z,6.10
2017-10-23T00:36:14.015Z,6.20
2017-10-23T00:38:42.744Z,6.20
2017-10-23T00:41:11.110Z,6.10
2017-10-23T00:43:39.404Z,6.20
2017-10-23T00:46:07.726Z,6.10
2017-10-23T00:48:36.027Z,6.10
2017-10-23T00:51:04.299Z,6.10
2017-10-23T00:53:32.604Z,6.10
2017-10-23T00:56:01.669Z,6.00
2017-10-23T00:58:29.977Z,6.00
2017-10-23T01:00:58.274Z,6.00
2017-10-23T01:03:26.558Z,6.00
2017-10-23T01:05:54.851Z,6.00
2017-10-23T01:08:23.172Z,6.00
2017-10-23T01:10:52.230Z,6.00
2017-10-23T01:13:20.524Z,6.00
2017-10-23T01:15:48.815Z,6.00
2017-10-23T01:18:17.104Z,5.90
2017-10-23T01:20:45.413Z,5.90
2017-10-23T01:23:13.720Z,5.90
2017-10-23T01:25:42.800Z,5.90
2017-10-23T01:28:11.091Z,5.90
2017-10-23T01:30:39.376Z,5.90
2017-10-23T01:33:07.663Z,5.90
2017-10-23T01:35:35.947Z,5.90
2017-10-23T01:38:04.351Z,6.00
2017-10-23T01:40:32.652Z,6.00
2017-10-23T01:43:00.928Z,6.00
2017-10-23T01:45:29.237Z,5.90
2017-10-23T01:47:58.283Z,5.90
2017-10-23T01:50:26.551Z,5.90
2017-10-23T01:52:54.843Z,5.90
2017-10-23T01:55:23.127Z,5.90
2017-10-23T01:57:51.420Z,5.90
2017-10-23T02:00:19.699Z,5.90
2017-10-23T02:02:48.771Z,5.90
2017-10-23T02:05:17.081Z,5.90
2017-10-23T02:07:46.140Z,5.90
2017-10-23T02:10:14.422Z,5.90
2017-10-23T02:12:42.720Z,5.90
2017-10-23T02:15:11.006Z,5.90
2017-10-23T02:17:39.331Z,5.90
2017-10-23T02:20:07.615Z,5.90
2017-10-23T02:22:36.671Z,5.80
2017-10-23T02:25:05.020Z,5.80
2017-10-23T02:27:33.295Z,5.90
2017-10-23T02:30:01.605Z,5.90
2017-10-23T02:32:30.664Z,5.80
2017-10-23T02:34:58.954Z,5.80
2017-10-23T02:37:27.231Z,5.90
2017-10-23T02:39:55.536Z,5.90
2017-10-23T02:42:23.826Z,5.90
2017-10-23T02:44:52.111Z,5.90
2017-10-23T02:47:20.452Z,5.90
2017-10-23T02:49:49.494Z,5.90
2017-10-23T02:52:17.783Z,5.90
2017-10-23T02:54:46.064Z,5.90
2017-10-23T02:57:14.381Z,6.00
2017-10-23T02:59:42.659Z,6.00
2017-10-23T03:02:11.010Z,6.00
2017-10-23T03:04:40.112Z,6.00
2017-10-23T03:07:09.170Z,6.00
2017-10-23T03:09:37.448Z,5.90
2017-10-23T03:12:05.735Z,6.00
2017-10-23T03:14:34.093Z,5.90
2017-10-23T03:17:03.444Z,5.90
2017-10-23T03:19:31.776Z,5.90
2017-10-23T03:22:00.169Z,6.00
2017-10-23T03:24:29.608Z,5.90
2017-10-23T03:26:58.727Z,5.90
2017-10-23T03:29:27.118Z,5.90
2017-10-23T03:31:55.456Z,5.90
2017-10-23T03:34:23.848Z,6.00
2017-10-23T03:36:52.189Z,6.00
2017-10-23T03:39:20.644Z,6.00
2017-10-23T03:41:49.796Z,6.00
2017-10-23T03:44:18.145Z,6.00
2017-10-23T03:46:46.475Z,6.00
2017-10-23T03:49:14.809Z,6.00
2017-10-23T03:51:43.212Z,5.90
2017-10-23T03:54:12.326Z,5.90
2017-10-23T03:56:41.457Z,5.90
2017-10-23T03:59:09.853Z,5.90
2017-10-23T04:01:38.160Z,5.90
2017-10-23T04:04:06.571Z,6.00
2017-10-23T04:06:34.868Z,6.00
2017-10-23T04:09:03.154Z,6.00
2017-10-23T04:11:31.438Z,6.00
2017-10-23T04:13:59.739Z,6.00
2017-10-23T04:16:28.052Z,6.00
2017-10-23T04:18:56.340Z,6.00
2017-10-23T04:21:24.645Z,6.00
2017-10-23T04:23:53.719Z,6.00
2017-10-23T04:26:22.031Z,6.00
2017-10-23T04:28:50.321Z,6.00
2017-10-23T04:31:18.639Z,6.00
2017-10-23T04:33:46.929Z,6.00
2017-10-23T04:36:15.307Z,6.00
2017-10-23T04:38:44.444Z,6.00
2017-10-23T04:41:12.747Z,6.00
2017-10-23T04:43:42.276Z,6.00
2017-10-23T04:46:10.568Z,6.00
2017-10-23T04:48:38.856Z,6.00
2017-10-23T04:51:07.275Z,6.00
2017-10-23T04:53:35.573Z,6.00
2017-10-23T04:56:04.626Z,6.00
2017-10-23T04:58:32.932Z,6.00
2017-10-23T05:01:01.211Z,6.00
2017-10-23T05:03:29.543Z,5.90
2017-10-23T05:05:58.634Z,6.00
2017-10-23T05:08:26.936Z,6.00
2017-10-23T05:10:55.238Z,5.90
2017-10-23T05:13:24.292Z,6.00
2017-10-23T05:15:52.578Z,5.90
2017-10-23T05:18:20.943Z,5.90
2017-10-23T05:20:49.269Z,6.00
2017-10-23T05:23:17.563Z,6.00
2017-10-23T05:25:45.884Z,5.90
2017-10-23T05:28:14.183Z,5.90
2017-10-23T05:30:42.603Z,5.90
2017-10-23T05:33:10.892Z,6.00
2017-10-23T05:35:40.142Z,6.00
2017-10-23T05:38:08.504Z,6.00
2017-10-23T05:40:36.843Z,6.00
2017-10-23T05:43:06.067Z,6.00
2017-10-23T05:45:38.521Z,6.00
2017-10-23T05:48:10.728Z,6.00
2017-10-23T05:50:39.827Z,6.00
2017-10-23T05:53:08.185Z,6.00
2017-10-23T05:55:36.536Z,6.00
2017-10-23T05:58:04.956Z,6.00
2017-10-23T06:00:33.295Z,6.00
2017-10-23T06:03:02.440Z,6.00
2017-10-23T06:05:30.774Z,6.00
2017-10-23T06:07:59.156Z,6.00
2017-10-23T06:10:27.496Z,6.00
2017-10-23T06:12:55.867Z,6.00
2017-10-23T06:15:25.055Z,6.00
2017-10-23T06:17:53.432Z,6.00
2017-10-23T06:20:21.820Z,6.00
2017-10-23T06:22:50.199Z,6.00
2017-10-23T06:25:18.536Z,6.10
2017-10-23T06:27:46.900Z,6.00
2017-10-23T06:30:15.247Z,6.00
2017-10-23T06:32:43.644Z,6.00
2017-10-23T06:35:12.014Z,6.00
2017-10-23T06:37:41.173Z,6.10
2017-10-23T06:40:09.514Z,6.10
2017-10-23T06:42:38.612Z,6.10
2017-10-23T06:45:07.760Z,6.10
2017-10-23T06:47:36.306Z,6.00
2017-10-23T06:50:04.623Z,6.10
2017-10-23T06:52:33.756Z,6.00
2017-10-23T06:55:02.084Z,6.00
2017-10-23T06:57:31.255Z,6.00
2017-10-23T06:59:59.629Z,6.00
2017-10-23T07:02:28.181Z,6.00
2017-10-23T07:04:56.594Z,6.00
2017-10-23T07:07:24.987Z,6.00
2017-10-23T07:09:54.083Z,6.10
2017-10-23T07:12:23.183Z,6.10
2017-10-23T07:14:52.252Z,6.10
2017-10-23T07:17:20.561Z,6.10
2017-10-23T07:19:48.928Z,6.20
2017-10-23T07:22:17.251Z,6.10
2017-10-23T07:24:45.617Z,6.10
2017-10-23T07:27:14.032Z,6.20
2017-10-23T07:29:42.448Z,6.20
2017-10-23T07:32:10.786Z,6.20
2017-10-23T07:34:39.079Z,6.20
2017-10-23T07:37:07.391Z,6.30
2017-10-23T07:39:35.843Z,6.40
2017-10-23T07:42:04.131Z,6.40
2017-10-23T07:44:32.413Z,6.50
2017-10-23T07:47:00.723Z,6.50
2017-10-23T07:49:29.016Z,6.50
2017-10-23T07:51:57.632Z,6.60
2017-10-23T07:54:25.922Z,6.70
2017-10-23T07:56:54.216Z,6.70
2017-10-23T07:59:23.312Z,6.80
2017-10-23T08:01:51.641Z,6.80
2017-10-23T08:04:19.960Z,6.80
2017-10-23T08:06:48.260Z,6.80
2017-10-23T08:09:16.556Z,6.80
2017-10-23T08:11:44.892Z,6.80
2017-10-23T08:14:13.329Z,6.80
2017-10-23T08:16:41.736Z,6.90
2017-10-23T08:19:10.834Z,6.80
2017-10-23T08:21:39.279Z,6.80
2017-10-23T08:24:07.644Z,6.80
2017-10-23T08:26:36.696Z,6.70
2017-10-23T08:29:05.003Z,6.70
2017-10-23T08:31:33.328Z,6.70
2017-10-23T08:34:02.379Z,6.80
2017-10-23T08:36:30.689Z,6.90
2017-10-23T08:38:59.018Z,6.90
2017-10-23T08:41:28.085Z,6.80
2017-10-23T08:43:56.503Z,6.70
2017-10-23T08:46:25.573Z,6.70
2017-10-23T08:48:53.886Z,6.70
2017-10-23T08:51:22.191Z,6.70
2017-10-23T08:53:50.509Z,6.70
2017-10-23T08:56:19.025Z,6.70
2017-10-23T08:58:47.386Z,6.70
2017-10-23T09:01:15.716Z,6.70
2017-10-23T09:03:44.044Z,6.70
2017-10-23T09:06:12.433Z,6.70
2017-10-23T09:08:41.636Z,6.70
2017-10-23T09:11:09.995Z,6.70
2017-10-23T09:13:38.343Z,6.70
2017-10-23T09:16:06.651Z,6.70
2017-10-23T09:18:34.950Z,6.70
2017-10-23T09:21:03.267Z,6.70
2017-10-23T09:23:31.876Z,6.80
2017-10-23T09:26:00.207Z,6.90
2017-10-23T09:28:28.652Z,7.10
2017-10-23T09:30:56.984Z,7.30
2017-10-23T09:33:25.312Z,7.40
2017-10-23T09:35:53.605Z,7.50
2017-10-23T09:38:21.908Z,7.40
2017-10-23T09:40:50.222Z,7.40
2017-10-23T09:43:18.532Z,7.40
2017-10-23T09:45:46.841Z,7.50
2017-10-23T09:48:15.179Z,7.60
2017-10-23T09:50:43.488Z,7.70
2017-10-23T09:53:11.815Z,7.80
2017-10-23T09:55:40.114Z,7.90
2017-10-23T09:58:08.462Z,7.90
2017-10-23T10:00:36.789Z,7.90
2017-10-23T10:03:05.133Z,8.00
2017-10-23T10:05:34.203Z,7.90
2017-10-23T10:08:03.645Z,7.80
2017-10-23T10:10:32.757Z,7.60
2017-10-23T10:13:01.874Z,7.60
2017-10-23T10:15:30.957Z,7.50
2017-10-23T10:17:59.243Z,7.50
2017-10-23T10:20:27.567Z,7.50
2017-10-23T10:22:55.879Z,7.50
2017-10-23T10:25:24.171Z,7.50
2017-10-23T10:27:52.455Z,7.40
2017-10-23T10:30:20.881Z,7.40
2017-10-23T10:32:49.184Z,7.40
2017-10-23T10:35:17.499Z,7.40
2017-10-23T10:37:45.873Z,7.40
2017-10-23T10:40:14.166Z,7.40
2017-10-23T10:42:43.250Z,7.40
2017-10-23T10:45:11.549Z,7.40
2017-10-23T10:47:39.875Z,7.50
2017-10-23T10:50:08.277Z,7.50
2017-10-23T10:52:36.591Z,7.50
2017-10-23T10:55:04.896Z,7.70
2017-10-23T10:57:33.216Z,7.90
2017-10-23T11:00:01.515Z,8.00
2017-10-23T11:02:29.827Z,8.00
2017-10-23T11:04:58.152Z,8.00
2017-10-23T11:07:26.456Z,7.90
2017-10-23T11:09:54.761Z,7.90
2017-10-23T11:12:23.826Z,7.90
2017-10-23T11:14:52.127Z,7.90
2017-10-23T11:17:20.467Z,7.90
2017-10-23T11:19:48.988Z,7.90
2017-10-23T11:22:18.224Z,7.80
2017-10-23T11:24:46.529Z,7.80
2017-10-23T11:27:15.606Z,7.90
2017-10-23T11:29:43.999Z,7.90
2017-10-23T11:32:12.332Z,7.90
2017-10-23T11:34:41.397Z,7.90
2017-10-23T11:37:10.610Z,7.90
2017-10-23T11:39:39.013Z,8.10
2017-10-23T11:42:07.372Z,8.30
2017-10-23T11:44:35.777Z,8.40
2017-10-23T11:47:04.056Z,8.60
2017-10-23T11:49:32.337Z,8.60
2017-10-23T11:52:00.623Z,8.50
2017-10-23T11:54:28.944Z,8.40
2017-10-23T11:56:57.250Z,8.40
2017-10-23T11:59:25.543Z,8.40
2017-10-23T12:01:53.834Z,8.40
2017-10-23T12:04:22.114Z,8.30
2017-10-23T12:06:50.524Z,8.30
2017-10-23T12:09:18.902Z,8.30
2017-10-23T12:11:53.728Z,8.10
2017-10-23T12:14:22.842Z,8.00
2017-10-23T12:16:51.950Z,8.00
2017-10-23T12:19:20.384Z,7.90
2017-10-23T12:21:48.675Z,7.80
2017-10-23T12:24:17.027Z,7.70
2017-10-23T12:26:45.642Z,7.70
2017-10-23T12:29:15.115Z,7.80
2017-10-23T12:31:44.541Z,7.90
2017-10-23T12:34:13.062Z,7.90
2017-10-23T12:36:42.245Z,8.10
2017-10-23T12:39:10.853Z,8.20
2017-10-23T12:41:39.458Z,8.30
2017-10-23T12:44:08.090Z,8.50
2017-10-23T12:46:36.719Z,8.70
2017-10-23T12:49:05.209Z,8.70
2017-10-23T12:51:33.623Z,8.60
2017-10-23T12:54:02.726Z,8.60
2017-10-23T12:56:31.864Z,8.60
2017-10-23T12:59:00.221Z,8.50
2017-10-23T13:01:28.552Z,8.50
2017-10-23T13:03:56.936Z,8.50
2017-10-23T13:06:25.284Z,8.50
2017-10-23T13:08:53.643Z,8.60
2017-10-23T13:11:22.043Z,8.70
2017-10-23T13:13:50.419Z,8.80
2017-10-23T13:16:18.792Z,8.80
2017-10-23T13:18:47.161Z,8.70
2017-10-23T13:21:16.295Z,8.40
2017-10-23T13:23:44.732Z,8.40
2017-10-23T13:26:13.054Z,8.40
2017-10-23T13:28:42.111Z,8.50
2017-10-23T13:31:10.436Z,8.50
2017-10-23T13:33:38.751Z,8.50
2017-10-23T13:36:07.055Z,8.40
2017-10-23T13:38:35.402Z,8.40
2017-10-23T13:41:03.694Z,8.40
2017-10-23T13:43:31.984Z,8.40
2017-10-23T13:46:01.044Z,8.50
2017-10-23T13:48:29.344Z,8.50
2017-10-23T13:50:57.627Z,8.50
2017-10-23T13:53:25.911Z,8.20
2017-10-23T13:55:54.322Z,8.20
2017-10-23T13:58:22.622Z,8.30
2017-10-23T14:00:50.915Z,8.20
2017-10-23T14:03:19.216Z,8.10
2017-10-23T14:05:48.320Z,8.10
2017-10-23T14:08:17.379Z,8.10
2017-10-23T14:10:45.682Z,8.10
2017-10-23T14:13:14.010Z,8.10
2017-10-23T14:15:42.330Z,8.10
2017-10-23T14:18:10.667Z,8.10
2017-10-23T14:20:39.011Z,8.00
2017-10-23T14:23:07.421Z,8.00
2017-10-23T14:25:35.792Z,8.00
2017-10-23T14:28:04.157Z,8.00
2017-10-23T14:30:33.361Z,8.10
2017-10-23T14:33:01.717Z,8.00
2017-10-23T14:35:30.814Z,8.10
2017-10-23T14:37:59.922Z,8.10
2017-10-23T14:40:28.278Z,8.10
2017-10-23T14:42:56.635Z,8.10
2017-10-23T14:45:24.979Z,8.20
2017-10-23T14:47:53.335Z,8.20
2017-10-23T14:50:21.729Z,8.10
2017-10-23T14:52:50.072Z,8.10
2017-10-23T14:55:19.219Z,8.10
2017-10-23T14:57:47.634Z,8.10
2017-10-23T15:00:15.963Z,8.10
2017-10-23T15:02:45.113Z,8.00
2017-10-23T15:05:13.469Z,8.00
2017-10-23T15:07:41.869Z,7.90
2017-10-23T15:10:10.210Z,8.00
2017-10-23T15:12:38.513Z,7.90
2017-10-23T15:15:07.576Z,7.90
2017-10-23T15:17:35.859Z,7.90
2017-10-23T15:20:04.387Z,7.90
2017-10-23T15:22:32.800Z,7.90
2017-10-23T15:25:02.031Z,7.80
2017-10-23T15:27:30.334Z,7.80
2017-10-23T15:29:58.710Z,7.80
2017-10-23T15:32:27.949Z,7.80
2017-10-23T15:34:56.304Z,7.80
2017-10-23T15:37:24.608Z,7.80
2017-10-23T15:39:52.917Z,7.80
2017-10-23T15:42:21.249Z,7.80
2017-10-23T15:44:50.383Z,7.80
2017-10-23T15:47:18.709Z,7.80
2017-10-23T15:49:47.084Z,7.80
2017-10-23T15:52:16.363Z,7.80
2017-10-23T15:54:44.704Z,7.80
2017-10-23T15:57:13.008Z,7.90
2017-10-23T15:59:42.097Z,7.80
2017-10-23T16:02:10.412Z,7.80
2017-10-23T16:04:39.609Z,7.80
2017-10-23T16:07:08.777Z,7.90
2017-10-23T16:09:37.197Z,7.80
2017-10-23T16:12:05.584Z,7.90
2017-10-23T16:14:34.756Z,7.90
2017-10-23T16:17:03.181Z,7.90
2017-10-23T16:19:31.623Z,7.80
2017-10-23T16:21:59.982Z,7.90
2017-10-23T16:24:28.325Z,7.90
2017-10-23T16:26:56.679Z,7.90
2017-10-23T16:29:25.178Z,7.90
2017-10-23T16:31:54.397Z,7.90
2017-10-23T16:34:22.851Z,7.90
2017-10-23T16:36:51.262Z,7.90
2017-10-23T16:39:19.649Z,7.90
2017-10-23T16:41:48.132Z,7.90
2017-10-23T16:44:16.883Z,7.90
2017-10-23T16:46:45.248Z,7.90
2017-10-23T16:49:13.865Z,7.90
2017-10-23T16:51:42.494Z,7.90
2017-10-23T16:54:11.560Z,7.90
2017-10-23T16:56:40.669Z,7.90
2017-10-23T16:59:08.987Z,7.90
2017-10-23T17:01:37.340Z,8.00
2017-10-23T17:04:05.637Z,7.90
2017-10-23T17:06:33.944Z,7.90
2017-10-23T17:09:02.368Z,7.90
2017-10-23T17:11:31.433Z,7.80
2017-10-23T17:13:59.739Z,7.80
2017-10-23T17:16:28.046Z,7.90
2017-10-23T17:18:56.349Z,7.80
2017-10-23T17:21:25.423Z,7.80
2017-10-23T17:23:53.748Z,7.80
2017-10-23T17:26:22.853Z,7.80
2017-10-23T17:28:51.917Z,7.80
2017-10-23T17:31:20.249Z,7.80
2017-10-23T17:33:48.580Z,7.70
2017-10-23T17:36:16.964Z,7.70
2017-10-23T17:38:45.296Z,7.70
2017-10-23T17:41:14.373Z,7.70
2017-10-23T17:43:42.678Z,7.70
2017-10-23T17:46:10.996Z,7.80
2017-10-23T17:48:39.299Z,7.70
2017-10-23T17:51:07.631Z,7.70
2017-10-23T17:53:35.955Z,7.70
2017-10-23T17:56:05.024Z,7.80
2017-10-23T17:58:33.324Z,7.80
2017-10-23T18:01:01.615Z,7.80
2017-10-23T18:03:29.957Z,7.80
2017-10-23T18:05:58.254Z,7.90
2017-10-23T18:08:26.563Z,7.90
2017-10-23T18:10:54.867Z,7.80
2017-10-23T18:13:23.161Z,7.80
2017-10-23T18:15:52.261Z,7.90
2017-10-23T18:18:20.547Z,7.90
2017-10-23T18:20:48.942Z,7.90
2017-10-23T18:23:18.041Z,7.90
2017-10-23T18:25:46.431Z,7.90
2017-10-23T18:28:14.740Z,7.90
2017-10-23T18:30:43.796Z,8.00
2017-10-23T18:33:12.108Z,8.00
2017-10-23T18:35:40.420Z,7.90
2017-10-23T18:38:09.574Z,7.90
2017-10-23T18:40:37.936Z,7.90
2017-10-23T18:43:07.071Z,7.90
2017-10-23T18:45:35.465Z,7.90
2017-10-23T18:48:03.861Z,7.90
2017-10-23T18:50:32.222Z,7.90
2017-10-23T18:53:00.877Z,7.90
2017-10-23T18:55:29.235Z,7.90
2017-10-23T18:57:58.435Z,8.00
2017-10-23T19:00:26.749Z,8.00
2017-10-23T19:02:55.040Z,8.00
2017-10-23T19:05:23.328Z,8.00
2017-10-23T19:07:51.624Z,8.00
2017-10-23T19:10:19.961Z,8.00
2017-10-23T19:12:48.280Z,8.10
2017-10-23T19:15:16.575Z,8.10
2017-10-23T19:17:44.882Z,8.10
2017-10-23T19:20:13.187Z,8.10
2017-10-23T19:22:42.292Z,8.00
2017-10-23T19:25:11.351Z,8.00
2017-10-23T19:27:39.655Z,8.00
2017-10-23T19:30:07.960Z,8.00
2017-10-23T19:32:36.498Z,8.10
2017-10-23T19:35:04.854Z,8.10
2017-10-23T19:37:33.159Z,8.00
2017-10-23T19:40:01.452Z,8.10
2017-10-23T19:42:29.740Z,8.10
2017-10-23T19:44:58.056Z,8.10
2017-10-23T19:47:26.406Z,8.10
2017-10-23T19:49:54.943Z,8.10
2017-10-23T19:52:23.240Z,8.10
2017-10-23T19:54:51.547Z,8.00
2017-10-23T19:57:19.899Z,8.10
2017-10-23T19:59:48.186Z,8.10
2017-10-23T20:02:16.502Z,8.10
2017-10-23T20:04:44.795Z,8.10
2017-10-23T20:07:13.103Z,8.10
2017-10-23T20:09:42.210Z,8.10
2017-10-23T20:12:11.275Z,8.10
2017-10-23T20:14:39.564Z,8.10
2017-10-23T20:17:07.860Z,8.10
2017-10-23T20:19:36.160Z,8.20
2017-10-23T20:22:04.478Z,8.20
2017-10-23T20:24:33.535Z,8.20
2017-10-23T20:27:01.849Z,8.20
2017-10-23T20:29:30.256Z,8.30
2017-10-23T20:31:59.328Z,8.30
2017-10-23T20:34:27.973Z,8.30
2017-10-23T20:36:56.302Z,8.30
2017-10-23T20:39:24.621Z,8.30
2017-10-23T20:41:52.944Z,8.30
2017-10-23T20:44:21.245Z,8.30
2017-10-23T20:46:49.585Z,8.30
2017-10-23T20:49:17.932Z,8.30
2017-10-23T20:51:46.229Z,8.30
2017-10-23T20:54:14.521Z,8.30
2017-10-23T20:56:42.822Z,8.30
2017-10-23T20:59:11.106Z,8.30
2017-10-23T21:01:39.439Z,8.30
2017-10-23T21:04:08.602Z,8.30
2017-10-23T21:06:37.054Z,8.30
2017-10-23T21:09:05.462Z,8.30
2017-10-23T21:11:33.822Z,8.30
2017-10-23T21:14:02.183Z,8.30
2017-10-23T21:16:30.585Z,8.40
2017-10-23T21:18:59.754Z,8.40
2017-10-23T21:21:28.905Z,8.40
2017-10-23T21:23:57.298Z,8.40
2017-10-23T21:26:26.536Z,8.30
2017-10-23T21:28:54.934Z,8.30
2017-10-23T21:31:23.283Z,8.30
2017-10-23T21:33:52.448Z,8.30
2017-10-23T21:36:20.831Z,8.30
2017-10-23T21:38:49.238Z,8.30
2017-10-23T21:41:18.363Z,8.30
2017-10-23T21:43:46.724Z,8.30
2017-10-23T21:46:15.095Z,8.30
2017-10-23T21:48:43.441Z,8.30
2017-10-23T21:51:11.849Z,8.40
2017-10-23T21:53:40.245Z,8.40
2017-10-23T21:56:08.751Z,8.40
2017-10-23T21:58:37.115Z,8.30
2017-10-23T22:01:06.248Z,8.30
2017-10-23T22:03:34.624Z,8.30
2017-10-23T22:06:02.983Z,8.30
2017-10-23T22:08:31.368Z,8.30
2017-10-23T22:10:59.740Z,8.40
2017-10-23T22:13:28.107Z,8.30
2017-10-23T22:15:56.505Z,8.40
2017-10-23T22:18:24.811Z,8.40
2017-10-23T22:20:53.103Z,8.30
2017-10-23T22:23:21.392Z,8.30
2017-10-23T22:25:49.698Z,8.30
2017-10-23T22:28:18.044Z,8.30
2017-10-23T22:30:46.336Z,8.40
2017-10-23T22:33:14.630Z,8.30
2017-10-23T22:35:42.932Z,8.30
2017-10-23T22:38:11.229Z,8.30
2017-10-23T22:40:39.573Z,8.30
2017-10-23T22:43:08.630Z,8.30
2017-10-23T22:45:36.927Z,8.30
2017-10-23T22:48:05.226Z,8.30
2017-10-23T22:50:33.507Z,8.30
2017-10-23T22:53:01.836Z,8.30
2017-10-23T22:55:30.140Z,8.30
2017-10-23T22:57:58.443Z,8.30
2017-10-23T23:00:26.735Z,8.30
2017-10-23T23:02:55.023Z,8.40
2017-10-23T23:05:23.352Z,8.40
2017-10-23T23:07:51.648Z,8.40
2017-10-23T23:10:19.986Z,8.40
2017-10-23T23:12:48.296Z,8.40
2017-10-23T23:15:16.597Z,8.40
2017-10-23T23:17:44.919Z,8.40
2017-10-23T23:20:14.417Z,8.40
2017-10-23T23:22:42.715Z,8.40
2017-10-23T23:25:11.792Z,8.50
2017-10-23T23:27:40.093Z,8.50
2017-10-23T23:30:08.392Z,8.50
2017-10-23T23:32:36.875Z,8.50
2017-10-23T23:35:05.959Z,8.50
2017-10-23T23:37:34.282Z,8.50
2017-10-23T23:40:02.683Z,8.50
2017-10-23T23:42:31.747Z,8.50
2017-10-23T23:45:00.838Z,8.50
2017-10-23T23:47:29.134Z,8.50
2017-10-23T23:49:57.454Z,8.50
2017-10-23T23:52:26.512Z,8.40
2017-10-23T23:54:54.810Z,8.40
2017-10-23T23:57:23.319Z,8.50
2017-10-23T23:59:52.483Z,8.50
